sensor_id;sensor_type;location;lat;lon;timestamp;pressure;altitude;pressure_sealevel;temperature;humidity
41636;BME280;27623;51.966;4.602;2022-07-21T00:01:06;-19416.25;;;22.18;79.21
41636;BME280;27623;51.966;4.602;2022-07-21T00:03:31;-19414.84;;;22.13;80.34
41636;BME280;27623;51.966;4.602;2022-07-21T00:05:57;-19418.81;;;22.27;79.51
41636;BME280;27623;51.966;4.602;2022-07-21T00:08:22;-19416.25;;;22.18;80.00
41636;BME280;27623;51.966;4.602;2022-07-21T00:10:48;-19415.13;;;22.14;80.35
41636;BME280;27623;51.966;4.602;2022-07-21T00:13:14;-19411.72;;;22.02;81.34
41636;BME280;27623;51.966;4.602;2022-07-21T00:15:39;-19409.88;;;21.95;82.17
41636;BME280;27623;51.966;4.602;2022-07-21T00:18:05;-19405.63;;;21.80;83.31
41636;BME280;27623;51.966;4.602;2022-07-21T00:20:30;-19409.88;;;21.95;82.75
41636;BME280;27623;51.966;4.602;2022-07-21T00:22:56;-19409.31;;;21.93;82.67
41636;BME280;27623;51.966;4.602;2022-07-21T00:25:22;-19406.63;;;21.84;83.42
41636;BME280;27623;51.966;4.602;2022-07-21T00:27:47;-19402.34;;;21.69;84.68
41636;BME280;27623;51.966;4.602;2022-07-21T00:30:13;-19405.06;;;21.78;84.26
41636;BME280;27623;51.966;4.602;2022-07-21T00:32:39;-19407.75;;;21.88;84.10
41636;BME280;27623;51.966;4.602;2022-07-21T00:35:06;-19407.47;;;21.87;84.18
41636;BME280;27623;51.966;4.602;2022-07-21T00:37:32;-19408.59;;;21.91;84.13
41636;BME280;27623;51.966;4.602;2022-07-21T00:39:57;-19412.00;;;22.03;83.75
41636;BME280;27623;51.966;4.602;2022-07-21T00:42:24;-19412.44;;;22.05;83.70
41636;BME280;27623;51.966;4.602;2022-07-21T00:44:50;-19414.13;;;22.11;83.26
41636;BME280;27623;51.966;4.602;2022-07-21T00:47:22;-19415.84;;;22.17;82.71
41636;BME280;27623;51.966;4.602;2022-07-21T00:49:48;-19415.13;;;22.14;83.38
41636;BME280;27623;51.966;4.602;2022-07-21T00:52:14;-19408.03;;;21.89;84.55
41636;BME280;27623;51.966;4.602;2022-07-21T00:54:42;-19412.28;;;22.04;83.88
41636;BME280;27623;51.966;4.602;2022-07-21T00:57:09;-19407.19;;;21.86;84.70
41636;BME280;27623;51.966;4.602;2022-07-21T00:59:35;-19408.19;;;21.89;85.32
41636;BME280;27623;51.966;4.602;2022-07-21T01:02:01;-19409.16;;;21.93;84.88
41636;BME280;27623;51.966;4.602;2022-07-21T01:04:26;-19410.88;;;21.99;84.75
41636;BME280;27623;51.966;4.602;2022-07-21T01:06:53;-19408.59;;;21.91;85.21
41636;BME280;27623;51.966;4.602;2022-07-21T01:09:20;-19397.69;;;21.52;87.46
41636;BME280;27623;51.966;4.602;2022-07-21T01:11:46;-19396.84;;;21.49;88.13
41636;BME280;27623;51.966;4.602;2022-07-21T01:14:12;-19402.06;;;21.68;87.49
41636;BME280;27623;51.966;4.602;2022-07-21T01:16:39;-19396.25;;;21.47;88.31
41636;BME280;27623;51.966;4.602;2022-07-21T01:19:06;-19392.56;;;21.34;89.32
41636;BME280;27623;51.966;4.602;2022-07-21T01:21:39;-19399.25;;;21.57;88.25
41636;BME280;27623;51.966;4.602;2022-07-21T01:24:06;-19395.41;;;21.44;88.85
41636;BME280;27623;51.966;4.602;2022-07-21T01:29:10;-19401.50;;;21.66;88.15
41636;BME280;27623;51.966;4.602;2022-07-21T01:31:37;-19403.22;;;21.72;87.69
41636;BME280;27623;51.966;4.602;2022-07-21T01:34:03;-19396.97;;;21.49;88.48
41636;BME280;27623;51.966;4.602;2022-07-21T01:36:29;-19389.03;;;21.21;91.17
41636;BME280;27623;51.966;4.602;2022-07-21T01:38:54;-19384.63;;;21.05;91.72
41636;BME280;27623;51.966;4.602;2022-07-21T01:41:38;-19384.19;;;21.04;92.02
41636;BME280;27623;51.966;4.602;2022-07-21T01:44:06;-19386.03;;;21.10;92.58
41636;BME280;27623;51.966;4.602;2022-07-21T01:46:35;-19389.03;;;21.21;91.71
41636;BME280;27623;51.966;4.602;2022-07-21T01:49:01;-19385.91;;;21.10;92.29
41636;BME280;27623;51.966;4.602;2022-07-21T01:51:27;-19388.59;;;21.19;92.22
41636;BME280;27623;51.966;4.602;2022-07-21T01:53:53;-19393.84;;;21.38;91.27
41636;BME280;27623;51.966;4.602;2022-07-21T01:56:22;-19397.81;;;21.52;90.45
41636;BME280;27623;51.966;4.602;2022-07-21T01:58:49;-19394.69;;;21.41;90.75
41636;BME280;27623;51.966;4.602;2022-07-21T02:01:16;-19391.44;;;21.30;91.65
41636;BME280;27623;51.966;4.602;2022-07-21T02:03:43;-19390.72;;;21.27;92.10
41636;BME280;27623;51.966;4.602;2022-07-21T02:06:09;-19382.06;;;20.96;93.73
41636;BME280;27623;51.966;4.602;2022-07-21T02:08:35;-19379.38;;;20.86;94.62
41636;BME280;27623;51.966;4.602;2022-07-21T02:11:00;-19381.50;;;20.94;94.34
41636;BME280;27623;51.966;4.602;2022-07-21T02:13:26;-19378.81;;;20.84;95.32
41636;BME280;27623;51.966;4.602;2022-07-21T02:15:55;-19379.81;;;20.88;95.16
41636;BME280;27623;51.966;4.602;2022-07-21T02:18:22;-19382.06;;;20.96;94.92
41636;BME280;27623;51.966;4.602;2022-07-21T02:20:48;-19385.06;;;21.07;94.48
41636;BME280;27623;51.966;4.602;2022-07-21T02:23:16;-19384.19;;;21.04;94.23
41636;BME280;27623;51.966;4.602;2022-07-21T02:25:42;-19383.78;;;21.02;94.73
41636;BME280;27623;51.966;4.602;2022-07-21T02:28:08;-19383.50;;;21.01;94.71
41636;BME280;27623;51.966;4.602;2022-07-21T02:30:33;-19387.88;;;21.17;93.95
41636;BME280;27623;51.966;4.602;2022-07-21T02:33:01;-19390.16;;;21.25;93.62
41636;BME280;27623;51.966;4.602;2022-07-21T02:35:27;-19393.44;;;21.37;92.83
41636;BME280;27623;51.966;4.602;2022-07-21T02:37:53;-19394.41;;;21.40;92.30
41636;BME280;27623;51.966;4.602;2022-07-21T02:40:18;-19388.47;;;21.19;93.60
41636;BME280;27623;51.966;4.602;2022-07-21T02:42:44;-19390.88;;;21.27;93.09
41636;BME280;27623;51.966;4.602;2022-07-21T02:45:12;-19383.22;;;21.00;95.05
41636;BME280;27623;51.966;4.602;2022-07-21T02:47:59;-19384.47;;;21.05;94.88
41636;BME280;27623;51.966;4.602;2022-07-21T02:50:27;-19378.25;;;20.82;96.07
41636;BME280;27623;51.966;4.602;2022-07-21T02:52:59;-19380.94;;;20.92;95.78
41636;BME280;27623;51.966;4.602;2022-07-21T02:55:25;-19379.81;;;20.88;96.30
41636;BME280;27623;51.966;4.602;2022-07-21T03:00:39;-19382.50;;;20.98;95.81
41636;BME280;27623;51.966;4.602;2022-07-21T03:03:05;-19374.69;;;20.70;97.64
41636;BME280;27623;51.966;4.602;2022-07-21T03:05:31;-19379.53;;;20.87;97.32
41636;BME280;27623;51.966;4.602;2022-07-21T03:07:58;-19378.81;;;20.84;97.40
41636;BME280;27623;51.966;4.602;2022-07-21T03:10:24;-19379.81;;;20.88;97.11
41636;BME280;27623;51.966;4.602;2022-07-21T03:12:49;-19383.50;;;21.01;96.91
41636;BME280;27623;51.966;4.602;2022-07-21T03:15:15;-19381.09;;;20.92;96.50
41636;BME280;27623;51.966;4.602;2022-07-21T03:17:40;-19382.78;;;20.99;96.94
41636;BME280;27623;51.966;4.602;2022-07-21T03:20:06;-19383.63;;;21.02;95.60
41636;BME280;27623;51.966;4.602;2022-07-21T03:22:32;-19380.22;;;20.89;97.41
41636;BME280;27623;51.966;4.602;2022-07-21T03:24:57;-19382.50;;;20.98;96.61
41636;BME280;27623;51.966;4.602;2022-07-21T03:27:22;-19385.06;;;21.07;95.91
41636;BME280;27623;51.966;4.602;2022-07-21T03:29:48;-19385.47;;;21.08;95.79
41636;BME280;27623;51.966;4.602;2022-07-21T03:32:13;-19383.06;;;21.00;96.46
41636;BME280;27623;51.966;4.602;2022-07-21T03:34:39;-19381.09;;;20.92;97.07
41636;BME280;27623;51.966;4.602;2022-07-21T03:37:05;-19385.19;;;21.07;96.13
41636;BME280;27623;51.966;4.602;2022-07-21T03:39:31;-19383.34;;;21.01;96.08
41636;BME280;27623;51.966;4.602;2022-07-21T03:41:56;-19382.66;;;20.98;95.98
41636;BME280;27623;51.966;4.602;2022-07-21T03:44:22;-19379.53;;;20.87;96.92
41636;BME280;27623;51.966;4.602;2022-07-21T03:46:47;-19379.38;;;20.86;96.94
41636;BME280;27623;51.966;4.602;2022-07-21T03:49:13;-19373.84;;;20.67;98.80
41636;BME280;27623;51.966;4.602;2022-07-21T03:51:38;-19374.56;;;20.69;98.75
41636;BME280;27623;51.966;4.602;2022-07-21T03:54:04;-19373.69;;;20.66;98.93
41636;BME280;27623;51.966;4.602;2022-07-21T03:56:29;-19375.97;;;20.74;98.75
41636;BME280;27623;51.966;4.602;2022-07-21T03:58:55;-19373.28;;;20.65;99.54
41636;BME280;27623;51.966;4.602;2022-07-21T04:01:23;-19376.53;;;20.76;98.84
41636;BME280;27623;51.966;4.602;2022-07-21T04:03:48;-19374.84;;;20.70;99.17
41636;BME280;27623;51.966;4.602;2022-07-21T04:06:14;-19374.41;;;20.69;99.47
41636;BME280;27623;51.966;4.602;2022-07-21T04:08:39;-19367.88;;;20.45;100.00
41636;BME280;27623;51.966;4.602;2022-07-21T04:11:05;-19370.59;;;20.55;100.00
41636;BME280;27623;51.966;4.602;2022-07-21T04:13:31;-19374.13;;;20.68;99.63
41636;BME280;27623;51.966;4.602;2022-07-21T04:15:57;-19375.25;;;20.72;99.63
41636;BME280;27623;51.966;4.602;2022-07-21T04:18:23;-19376.25;;;20.75;99.61
41636;BME280;27623;51.966;4.602;2022-07-21T04:20:48;-19376.25;;;20.75;99.61
41636;BME280;27623;51.966;4.602;2022-07-21T04:23:14;-19376.41;;;20.76;100.00
41636;BME280;27623;51.966;4.602;2022-07-21T04:25:40;-19367.31;;;20.43;100.00
41636;BME280;27623;51.966;4.602;2022-07-21T04:28:08;-19367.75;;;20.45;100.00
41636;BME280;27623;51.966;4.602;2022-07-21T04:30:33;-19368.59;;;20.48;100.00
41636;BME280;27623;51.966;4.602;2022-07-21T04:32:59;-19370.00;;;20.53;100.00
41636;BME280;27623;51.966;4.602;2022-07-21T04:35:24;-19367.31;;;20.43;100.00
41636;BME280;27623;51.966;4.602;2022-07-21T04:37:51;-19371.84;;;20.59;100.00
41636;BME280;27623;51.966;4.602;2022-07-21T04:40:18;-19370.88;;;20.56;100.00
41636;BME280;27623;51.966;4.602;2022-07-21T04:42:43;-19374.56;;;20.69;99.59
41636;BME280;27623;51.966;4.602;2022-07-21T04:45:11;-19375.25;;;20.72;99.61
41636;BME280;27623;51.966;4.602;2022-07-21T04:47:43;-19371.16;;;20.57;100.00
41636;BME280;27623;51.966;4.602;2022-07-21T04:50:09;-19366.47;;;20.40;100.00
41636;BME280;27623;51.966;4.602;2022-07-21T04:52:36;-19365.75;;;20.38;100.00
41636;BME280;27623;51.966;4.602;2022-07-21T04:55:01;-19363.75;;;20.31;100.00
41636;BME280;27623;51.966;4.602;2022-07-21T04:57:29;-19367.03;;;20.42;100.00
41636;BME280;27623;51.966;4.602;2022-07-21T04:59:55;-19368.16;;;20.46;100.00
41636;BME280;27623;51.966;4.602;2022-07-21T05:02:21;-19363.34;;;20.29;100.00
41636;BME280;27623;51.966;4.602;2022-07-21T05:04:46;-19370.16;;;20.53;100.00
41636;BME280;27623;51.966;4.602;2022-07-21T05:07:12;-19372.28;;;20.61;100.00
41636;BME280;27623;51.966;4.602;2022-07-21T05:09:38;-19373.97;;;20.67;100.00
41636;BME280;27623;51.966;4.602;2022-07-21T05:12:06;-19372.00;;;20.60;100.00
41636;BME280;27623;51.966;4.602;2022-07-21T05:14:31;-19369.44;;;20.51;100.00
41636;BME280;27623;51.966;4.602;2022-07-21T05:16:57;-19365.31;;;20.36;100.00
41636;BME280;27623;51.966;4.602;2022-07-21T05:19:23;-19371.16;;;20.57;100.00
41636;BME280;27623;51.966;4.602;2022-07-21T05:21:49;-19370.16;;;20.53;100.00
41636;BME280;27623;51.966;4.602;2022-07-21T05:24:14;-19372.72;;;20.63;100.00
41636;BME280;27623;51.966;4.602;2022-07-21T05:26:40;-19370.59;;;20.55;100.00
41636;BME280;27623;51.966;4.602;2022-07-21T05:29:06;-19364.19;;;20.32;100.00
41636;BME280;27623;51.966;4.602;2022-07-21T05:31:32;-19364.19;;;20.32;100.00
41636;BME280;27623;51.966;4.602;2022-07-21T05:33:57;-19361.19;;;20.21;100.00
41636;BME280;27623;51.966;4.602;2022-07-21T05:36:23;-19363.91;;;20.31;100.00
41636;BME280;27623;51.966;4.602;2022-07-21T05:38:48;-19356.22;;;20.04;100.00
41636;BME280;27623;51.966;4.602;2022-07-21T05:41:14;-19358.22;;;20.11;100.00
41636;BME280;27623;51.966;4.602;2022-07-21T05:43:40;-19361.78;;;20.23;100.00
41636;BME280;27623;51.966;4.602;2022-07-21T05:46:05;-19364.47;;;20.33;100.00
41636;BME280;27623;51.966;4.602;2022-07-21T05:48:30;-19368.59;;;20.48;100.00
41636;BME280;27623;51.966;4.602;2022-07-21T05:50:56;-19371.56;;;20.58;100.00
41636;BME280;27623;51.966;4.602;2022-07-21T05:53:21;-19366.31;;;20.40;100.00
41636;BME280;27623;51.966;4.602;2022-07-21T05:55:47;-19370.16;;;20.53;100.00
41636;BME280;27623;51.966;4.602;2022-07-21T05:58:13;-19371.28;;;20.57;100.00
41636;BME280;27623;51.966;4.602;2022-07-21T06:00:41;-19369.88;;;20.52;100.00
41636;BME280;27623;51.966;4.602;2022-07-21T06:03:06;-19367.88;;;20.45;100.00
41636;BME280;27623;51.966;4.602;2022-07-21T06:05:31;-19372.41;;;20.62;100.00
41636;BME280;27623;51.966;4.602;2022-07-21T06:07:57;-19377.09;;;20.78;100.00
41636;BME280;27623;51.966;4.602;2022-07-21T06:10:23;-19373.28;;;20.65;100.00
41636;BME280;27623;51.966;4.602;2022-07-21T06:12:48;-19375.41;;;20.72;100.00
41636;BME280;27623;51.966;4.602;2022-07-21T06:15:14;-19376.97;;;20.78;100.00
41636;BME280;27623;51.966;4.602;2022-07-21T06:17:44;-19377.53;;;20.80;100.00
41636;BME280;27623;51.966;4.602;2022-07-21T06:20:11;-19376.13;;;20.75;100.00
41636;BME280;27623;51.966;4.602;2022-07-21T06:22:37;-19373.84;;;20.67;100.00
41636;BME280;27623;51.966;4.602;2022-07-21T06:25:03;-19373.56;;;20.66;100.00
41636;BME280;27623;51.966;4.602;2022-07-21T06:27:29;-19375.41;;;20.72;100.00
41636;BME280;27623;51.966;4.602;2022-07-21T06:29:58;-19374.56;;;20.69;100.00
41636;BME280;27623;51.966;4.602;2022-07-21T06:32:24;-19371.84;;;20.59;100.00
41636;BME280;27623;51.966;4.602;2022-07-21T06:34:50;-19372.41;;;20.62;100.00
41636;BME280;27623;51.966;4.602;2022-07-21T06:37:16;-19373.56;;;20.66;100.00
41636;BME280;27623;51.966;4.602;2022-07-21T06:39:43;-19371.00;;;20.56;100.00
41636;BME280;27623;51.966;4.602;2022-07-21T06:42:09;-19374.56;;;20.69;100.00
41636;BME280;27623;51.966;4.602;2022-07-21T06:44:35;-19374.13;;;20.68;100.00
41636;BME280;27623;51.966;4.602;2022-07-21T06:47:00;-19372.84;;;20.63;100.00
41636;BME280;27623;51.966;4.602;2022-07-21T06:49:30;-19374.97;;;20.71;100.00
41636;BME280;27623;51.966;4.602;2022-07-21T06:51:56;-19376.13;;;20.75;100.00
41636;BME280;27623;51.966;4.602;2022-07-21T06:54:21;-19376.13;;;20.75;100.00
41636;BME280;27623;51.966;4.602;2022-07-21T06:56:47;-19379.81;;;20.88;100.00
41636;BME280;27623;51.966;4.602;2022-07-21T06:59:12;-19378.53;;;20.83;100.00
41636;BME280;27623;51.966;4.602;2022-07-21T07:01:38;-19376.69;;;20.77;100.00
41636;BME280;27623;51.966;4.602;2022-07-21T07:04:05;-19377.66;;;20.80;100.00
41636;BME280;27623;51.966;4.602;2022-07-21T07:06:31;-19377.25;;;20.79;100.00
41636;BME280;27623;51.966;4.602;2022-07-21T07:08:57;-19377.53;;;20.80;100.00
41636;BME280;27623;51.966;4.602;2022-07-21T07:11:22;-19374.69;;;20.70;100.00
41636;BME280;27623;51.966;4.602;2022-07-21T07:13:48;-19374.28;;;20.68;100.00
41636;BME280;27623;51.966;4.602;2022-07-21T07:16:16;-19374.28;;;20.68;100.00
41636;BME280;27623;51.966;4.602;2022-07-21T07:18:42;-19373.41;;;20.65;100.00
41636;BME280;27623;51.966;4.602;2022-07-21T07:21:07;-19370.59;;;20.55;100.00
41636;BME280;27623;51.966;4.602;2022-07-21T07:23:33;-19367.31;;;20.43;100.00
41636;BME280;27623;51.966;4.602;2022-07-21T07:25:59;-19368.31;;;20.47;100.00
41636;BME280;27623;51.966;4.602;2022-07-21T07:28:25;-19369.44;;;20.51;100.00
41636;BME280;27623;51.966;4.602;2022-07-21T07:30:50;-19371.16;;;20.57;100.00
41636;BME280;27623;51.966;4.602;2022-07-21T07:33:15;-19371.72;;;20.59;100.00
41636;BME280;27623;51.966;4.602;2022-07-21T07:35:44;-19371.44;;;20.58;100.00
41636;BME280;27623;51.966;4.602;2022-07-21T07:38:13;-19368.44;;;20.47;100.00
41636;BME280;27623;51.966;4.602;2022-07-21T07:40:39;-19364.47;;;20.33;100.00
41636;BME280;27623;51.966;4.602;2022-07-21T07:43:05;-19368.88;;;20.49;100.00
41636;BME280;27623;51.966;4.602;2022-07-21T07:45:31;-19365.31;;;20.36;100.00
41636;BME280;27623;51.966;4.602;2022-07-21T07:47:59;-19365.59;;;20.37;100.00
41636;BME280;27623;51.966;4.602;2022-07-21T07:50:25;-19366.75;;;20.41;100.00
41636;BME280;27623;51.966;4.602;2022-07-21T07:52:51;-19363.34;;;20.29;100.00
41636;BME280;27623;51.966;4.602;2022-07-21T07:55:16;-19364.31;;;20.33;100.00
41636;BME280;27623;51.966;4.602;2022-07-21T07:57:42;-19366.31;;;20.40;100.00
41636;BME280;27623;51.966;4.602;2022-07-21T08:00:11;-19364.31;;;20.33;100.00
41636;BME280;27623;51.966;4.602;2022-07-21T08:02:37;-19357.66;;;20.09;100.00
41636;BME280;27623;51.966;4.602;2022-07-21T08:05:04;-19363.34;;;20.29;100.00
41636;BME280;27623;51.966;4.602;2022-07-21T08:07:30;-19365.59;;;20.37;100.00
41636;BME280;27623;51.966;4.602;2022-07-21T08:09:55;-19364.19;;;20.32;100.00
41636;BME280;27623;51.966;4.602;2022-07-21T08:12:21;-19364.91;;;20.35;100.00
41636;BME280;27623;51.966;4.602;2022-07-21T08:14:46;-19364.91;;;20.35;100.00
41636;BME280;27623;51.966;4.602;2022-07-21T08:17:12;-19366.31;;;20.40;100.00
41636;BME280;27623;51.966;4.602;2022-07-21T08:19:38;-19366.19;;;20.39;100.00
41636;BME280;27623;51.966;4.602;2022-07-21T08:22:06;-19369.00;;;20.49;100.00
41636;BME280;27623;51.966;4.602;2022-07-21T08:24:31;-19370.59;;;20.55;100.00
41636;BME280;27623;51.966;4.602;2022-07-21T08:26:59;-19372.28;;;20.61;100.00
41636;BME280;27623;51.966;4.602;2022-07-21T08:29:24;-19373.69;;;20.66;100.00
41636;BME280;27623;51.966;4.602;2022-07-21T08:31:50;-19370.16;;;20.53;100.00
41636;BME280;27623;51.966;4.602;2022-07-21T08:34:17;-19367.16;;;20.43;100.00
41636;BME280;27623;51.966;4.602;2022-07-21T08:36:43;-19364.63;;;20.34;100.00
41636;BME280;27623;51.966;4.602;2022-07-21T08:39:08;-19368.03;;;20.46;100.00
41636;BME280;27623;51.966;4.602;2022-07-21T08:41:35;-19361.63;;;20.23;100.00
41636;BME280;27623;51.966;4.602;2022-07-21T08:44:00;-19364.31;;;20.33;100.00
41636;BME280;27623;51.966;4.602;2022-07-21T08:46:28;-19369.88;;;20.52;100.00
41636;BME280;27623;51.966;4.602;2022-07-21T08:48:53;-19369.31;;;20.50;100.00
41636;BME280;27623;51.966;4.602;2022-07-21T08:51:19;-19367.31;;;20.43;100.00
41636;BME280;27623;51.966;4.602;2022-07-21T08:53:47;-19367.44;;;20.44;100.00
41636;BME280;27623;51.966;4.602;2022-07-21T08:56:13;-19365.75;;;20.38;100.00
41636;BME280;27623;51.966;4.602;2022-07-21T08:58:39;-19364.63;;;20.34;100.00
41636;BME280;27623;51.966;4.602;2022-07-21T09:01:07;-19360.78;;;20.20;100.00
41636;BME280;27623;51.966;4.602;2022-07-21T09:03:32;-19363.63;;;20.30;100.00
41636;BME280;27623;51.966;4.602;2022-07-21T09:08:32;-19355.94;;;20.03;100.00
41636;BME280;27623;51.966;4.602;2022-07-21T09:13:41;-19361.19;;;20.21;100.00
41636;BME280;27623;51.966;4.602;2022-07-21T09:16:07;-19359.91;;;20.17;100.00
41636;BME280;27623;51.966;4.602;2022-07-21T09:18:33;-19360.78;;;20.20;100.00
41636;BME280;27623;51.966;4.602;2022-07-21T09:20:58;-19361.63;;;20.23;100.00
41636;BME280;27623;51.966;4.602;2022-07-21T09:23:25;-19365.47;;;20.37;100.00
41636;BME280;27623;51.966;4.602;2022-07-21T09:25:53;-19366.03;;;20.39;100.00
41636;BME280;27623;51.966;4.602;2022-07-21T09:28:25;-19365.59;;;20.37;100.00
41636;BME280;27623;51.966;4.602;2022-07-21T09:33:31;-19362.91;;;20.28;100.00
41636;BME280;27623;51.966;4.602;2022-07-21T09:38:25;-19358.94;;;20.13;100.00
41636;BME280;27623;51.966;4.602;2022-07-21T09:40:51;-19364.19;;;20.32;100.00
41636;BME280;27623;51.966;4.602;2022-07-21T09:45:55;-19360.50;;;20.19;100.00
41636;BME280;27623;51.966;4.602;2022-07-21T09:48:32;-19364.31;;;20.33;100.00
41636;BME280;27623;51.966;4.602;2022-07-21T09:51:18;-19363.06;;;20.28;100.00
41636;BME280;27623;51.966;4.602;2022-07-21T09:54:04;-19363.34;;;20.29;100.00
41636;BME280;27623;51.966;4.602;2022-07-21T09:56:41;-19361.91;;;20.24;100.00
41636;BME280;27623;51.966;4.602;2022-07-21T09:59:09;-19360.50;;;20.19;100.00
41636;BME280;27623;51.966;4.602;2022-07-21T10:01:35;-19360.63;;;20.19;100.00
41636;BME280;27623;51.966;4.602;2022-07-21T10:04:02;-19362.19;;;20.25;100.00
41636;BME280;27623;51.966;4.602;2022-07-21T10:06:39;-19362.34;;;20.25;100.00
41636;BME280;27623;51.966;4.602;2022-07-21T10:09:09;-19358.50;;;20.12;100.00
41636;BME280;27623;51.966;4.602;2022-07-21T10:11:35;-19358.94;;;20.13;100.00
41636;BME280;27623;51.966;4.602;2022-07-21T10:14:02;-19359.91;;;20.17;100.00
41636;BME280;27623;51.966;4.602;2022-07-21T10:16:27;-19362.75;;;20.27;100.00
41636;BME280;27623;51.966;4.602;2022-07-21T10:19:00;-19362.34;;;20.25;100.00
41636;BME280;27623;51.966;4.602;2022-07-21T10:22:01;-19357.22;;;20.07;100.00
41636;BME280;27623;51.966;4.602;2022-07-21T10:24:30;-19357.50;;;20.08;100.00
41636;BME280;27623;51.966;4.602;2022-07-21T10:27:13;-19358.22;;;20.11;100.00
41636;BME280;27623;51.966;4.602;2022-07-21T10:29:56;-19360.50;;;20.19;100.00
41636;BME280;27623;51.966;4.602;2022-07-21T10:32:24;-19358.22;;;20.11;100.00
41636;BME280;27623;51.966;4.602;2022-07-21T10:34:52;-19356.22;;;20.04;100.00
41636;BME280;27623;51.966;4.602;2022-07-21T10:40:51;-19354.25;;;19.97;100.00
41636;BME280;27623;51.966;4.602;2022-07-21T10:48:00;-19359.91;;;20.17;100.00
41636;BME280;27623;51.966;4.602;2022-07-21T10:50:34;-19360.34;;;20.18;100.00
41636;BME280;27623;51.966;4.602;2022-07-21T10:53:05;-19362.19;;;20.25;100.00
41636;BME280;27623;51.966;4.602;2022-07-21T10:55:37;-19362.75;;;20.27;100.00
41636;BME280;27623;51.966;4.602;2022-07-21T10:58:12;-19362.63;;;20.27;100.00
41636;BME280;27623;51.966;4.602;2022-07-21T11:00:44;-19365.59;;;20.37;100.00
41636;BME280;27623;51.966;4.602;2022-07-21T11:03:19;-19356.22;;;20.04;100.00
41636;BME280;27623;51.966;4.602;2022-07-21T11:08:51;-19361.78;;;20.23;100.00
41636;BME280;27623;51.966;4.602;2022-07-21T11:11:20;-19357.38;;;20.08;100.00
41636;BME280;27623;51.966;4.602;2022-07-21T11:19:32;-19363.91;;;20.31;100.00
41636;BME280;27623;51.966;4.602;2022-07-21T11:22:14;-19362.34;;;20.25;100.00
41636;BME280;27623;51.966;4.602;2022-07-21T11:24:42;-19365.59;;;20.37;100.00
41636;BME280;27623;51.966;4.602;2022-07-21T11:27:15;-19361.78;;;20.23;100.00
41636;BME280;27623;51.966;4.602;2022-07-21T11:29:44;-19362.06;;;20.24;100.00
41636;BME280;27623;51.966;4.602;2022-07-21T11:32:11;-19363.06;;;20.28;100.00
41636;BME280;27623;51.966;4.602;2022-07-21T11:34:48;-19359.66;;;20.16;100.00
41636;BME280;27623;51.966;4.602;2022-07-21T11:37:29;-19360.34;;;20.18;100.00
41636;BME280;27623;51.966;4.602;2022-07-21T11:39:55;-19361.78;;;20.23;100.00
41636;BME280;27623;51.966;4.602;2022-07-21T11:42:21;-19364.75;;;20.34;100.00
41636;BME280;27623;51.966;4.602;2022-07-21T11:44:46;-19362.75;;;20.27;100.00
41636;BME280;27623;51.966;4.602;2022-07-21T11:47:14;-19363.63;;;20.30;100.00
41636;BME280;27623;51.966;4.602;2022-07-21T11:49:44;-19361.06;;;20.21;100.00
41636;BME280;27623;51.966;4.602;2022-07-21T11:52:15;-19361.91;;;20.24;100.00
41636;BME280;27623;51.966;4.602;2022-07-21T11:54:51;-19360.91;;;20.20;100.00
41636;BME280;27623;51.966;4.602;2022-07-21T11:57:18;-19355.25;;;20.00;100.00
41636;BME280;27623;51.966;4.602;2022-07-21T11:59:45;-19356.81;;;20.06;100.00
41636;BME280;27623;51.966;4.602;2022-07-21T12:02:22;-19359.91;;;20.17;100.00
41636;BME280;27623;51.966;4.602;2022-07-21T12:04:51;-19355.09;;;20.00;100.00
41636;BME280;27623;51.966;4.602;2022-07-21T12:07:27;-19354.25;;;19.97;100.00
41636;BME280;27623;51.966;4.602;2022-07-21T12:09:59;-19355.25;;;20.00;100.00
41636;BME280;27623;51.966;4.602;2022-07-21T12:12:39;-19356.53;;;20.05;100.00
41636;BME280;27623;51.966;4.602;2022-07-21T12:17:44;-19358.66;;;20.12;100.00
41636;BME280;27623;51.966;4.602;2022-07-21T12:20:11;-19356.38;;;20.04;100.00
41636;BME280;27623;51.966;4.602;2022-07-21T12:22:44;-19355.81;;;20.02;100.00
41636;BME280;27623;51.966;4.602;2022-07-21T12:25:13;-19356.94;;;20.06;100.00
41636;BME280;27623;51.966;4.602;2022-07-21T12:27:41;-19354.81;;;19.99;100.00
41636;BME280;27623;51.966;4.602;2022-07-21T12:30:09;-19354.66;;;19.98;100.00
41636;BME280;27623;51.966;4.602;2022-07-21T12:32:44;-19358.38;;;20.11;100.00
41636;BME280;27623;51.966;4.602;2022-07-21T12:35:25;-19357.38;;;20.08;100.00
41636;BME280;27623;51.966;4.602;2022-07-21T12:38:08;-19358.09;;;20.10;100.00
41636;BME280;27623;51.966;4.602;2022-07-21T12:40:36;-19355.25;;;20.00;100.00
41636;BME280;27623;51.966;4.602;2022-07-21T12:45:53;-19359.66;;;20.16;100.00
41636;BME280;27623;51.966;4.602;2022-07-21T12:48:22;-19359.78;;;20.16;100.00
41636;BME280;27623;51.966;4.602;2022-07-21T12:51:04;-19358.38;;;20.11;100.00
41636;BME280;27623;51.966;4.602;2022-07-21T12:53:33;-19359.34;;;20.15;100.00
41636;BME280;27623;51.966;4.602;2022-07-21T12:55:59;-19356.66;;;20.05;100.00
41636;BME280;27623;51.966;4.602;2022-07-21T12:58:24;-19356.94;;;20.06;100.00
41636;BME280;27623;51.966;4.602;2022-07-21T13:00:51;-19358.38;;;20.11;100.00
41636;BME280;27623;51.966;4.602;2022-07-21T13:03:16;-19355.94;;;20.03;100.00
41636;BME280;27623;51.966;4.602;2022-07-21T13:05:42;-19355.81;;;20.02;100.00
41636;BME280;27623;51.966;4.602;2022-07-21T13:08:07;-19356.38;;;20.04;100.00
41636;BME280;27623;51.966;4.602;2022-07-21T13:10:33;-19356.53;;;20.05;100.00
41636;BME280;27623;51.966;4.602;2022-07-21T13:12:58;-19357.09;;;20.07;100.00
41636;BME280;27623;51.966;4.602;2022-07-21T13:15:24;-19357.66;;;20.09;100.00
41636;BME280;27623;51.966;4.602;2022-07-21T13:17:49;-19356.53;;;20.05;100.00
41636;BME280;27623;51.966;4.602;2022-07-21T13:20:15;-19355.25;;;20.00;100.00
41636;BME280;27623;51.966;4.602;2022-07-21T13:22:41;-19351.69;;;19.87;100.00
41636;BME280;27623;51.966;4.602;2022-07-21T13:25:08;-19350.69;;;19.84;100.00